Time;durP1;ratioP1;P1;durP2;ratioP2;P2;SDS_P1;SDS_P2;PMS_P1;PMS_P2;Temp;Humidity;BMP_temperature;BMP_pressure;BME280_temperature;BME280_humidity;BME280_pressure;Samples;Min_cycle;Max_cycle;Signal;HPM_P1;HPM_P2
2020/12/09 00:02:17;;;;;;;66.30;34.13;;;;;;;0.60;74.12;101510.84;1770731;80;21142;-84
2020/12/09 00:04:45;;;;;;;72.03;36.10;;;;;;;0.63;74.17;101516.67;1770722;81;21185;-86
2020/12/09 00:07:13;;;;;;;67.75;33.98;;;;;;;0.64;74.20;101515.87;1770712;80;21118;-86
2020/12/09 00:09:41;;;;;;;71.57;37.28;;;;;;;0.64;74.17;101519.39;1768784;80;22915;-87
2020/12/09 00:12:09;;;;;;;76.50;36.85;;;;;;;0.63;74.17;101517.97;1756830;81;21080;-85
2020/12/09 00:14:37;;;;;;;73.60;37.13;;;;;;;0.63;74.14;101518.86;1756855;81;21226;-85
2020/12/09 00:17:06;;;;;;;69.25;35.52;;;;;;;0.60;74.11;101516.02;1756936;81;21179;-85
2020/12/09 00:19:33;;;;;;;85.50;38.65;;;;;;;0.58;74.26;101514.64;1756992;80;21175;-87
2020/12/09 00:22:01;;;;;;;78.70;36.93;;;;;;;0.56;74.18;101516.20;1757059;81;21886;-86
2020/12/09 00:24:28;;;;;;;74.32;37.38;;;;;;;0.54;74.28;101512.56;1756888;81;21178;-87
2020/12/09 00:26:56;;;;;;;75.50;36.03;;;;;;;0.54;74.33;101509.97;1756909;81;21199;-80
2020/12/09 00:29:23;;;;;;;74.90;36.83;;;;;;;0.54;74.37;101514.27;1756504;81;21615;-81
2020/12/09 00:31:51;;;;;;;68.62;34.25;;;;;;;0.52;74.37;101513.24;1756873;81;21162;-86
2020/12/09 00:34:18;;;;;;;74.82;38.73;;;;;;;0.49;74.28;101514.28;1756816;81;21884;-87
2020/12/09 00:36:45;;;;;;;80.60;38.10;;;;;;;0.45;74.36;101513.55;1756746;81;21413;-87
2020/12/09 00:39:12;;;;;;;80.75;37.20;;;;;;;0.46;74.46;101517.55;1756920;81;21131;-86
2020/12/09 00:41:39;;;;;;;75.83;38.67;;;;;;;0.46;74.52;101511.08;1756813;80;21155;-87
2020/12/09 00:44:06;;;;;;;70.10;35.68;;;;;;;0.47;74.48;101516.78;1757035;81;21090;-87
2020/12/09 00:46:36;;;;;;;73.12;34.40;;;;;;;0.40;74.39;101514.50;1756966;81;22628;-89
2020/12/09 00:49:03;;;;;;;73.72;37.33;;;;;;;0.36;74.44;101510.77;1756867;81;21162;-88
2020/12/09 00:51:31;;;;;;;80.12;37.73;;;;;;;0.35;74.54;101508.05;1756913;81;21645;-88
2020/12/09 00:53:58;;;;;;;72.47;37.53;;;;;;;0.30;74.55;101515.47;1756897;81;21198;-88
2020/12/09 00:56:25;;;;;;;62.08;32.75;;;;;;;0.32;74.66;101522.97;1757030;81;21566;-87
2020/12/09 00:58:52;;;;;;;68.47;33.70;;;;;;;0.30;74.57;101530.08;1757062;81;21884;-87
2020/12/09 01:01:19;;;;;;;75.20;36.38;;;;;;;0.24;74.59;101524.03;1756968;81;21135;-88
2020/12/09 01:03:47;;;;;;;63.58;31.57;;;;;;;0.21;74.65;101528.98;1757199;81;21140;-88
2020/12/09 01:06:14;;;;;;;71.92;36.95;;;;;;;0.19;74.74;101532.74;1757096;81;21203;-88
2020/12/09 01:08:41;;;;;;;73.25;35.00;;;;;;;0.17;74.76;101533.02;1757103;81;21190;-88
2020/12/09 01:11:08;;;;;;;75.85;36.80;;;;;;;0.14;74.80;101535.35;1756846;80;21889;-88
2020/12/09 01:13:36;;;;;;;72.58;36.58;;;;;;;0.15;74.90;101541.05;1757105;81;21170;-88
2020/12/09 01:16:04;;;;;;;67.65;34.60;;;;;;;0.16;74.91;101543.24;1757173;80;21186;-89
2020/12/09 01:18:32;;;;;;;74.45;36.90;;;;;;;0.16;74.95;101543.24;1757179;81;21315;-89
2020/12/09 01:20:59;;;;;;;76.12;37.55;;;;;;;0.15;74.95;101548.83;1757089;81;21182;-88
2020/12/09 01:23:27;;;;;;;66.72;33.60;;;;;;;0.14;74.91;101551.28;1757057;81;21948;-87
2020/12/09 01:25:55;;;;;;;68.92;32.98;;;;;;;0.12;75.00;101551.16;1757003;81;21135;-88
2020/12/09 01:28:22;;;;;;;78.70;37.85;;;;;;;0.12;75.05;101549.86;1756924;80;21194;-89
2020/12/09 01:30:49;;;;;;;68.85;33.67;;;;;;;0.10;75.00;101544.06;1756878;81;21135;-88
2020/12/09 01:33:16;;;;;;;60.12;30.55;;;;;;;0.11;75.03;101540.67;1757004;81;21103;-85
2020/12/09 01:35:43;;;;;;;76.72;37.48;;;;;;;0.09;75.04;101541.84;1757041;81;21629;-88
2020/12/09 01:38:10;;;;;;;74.22;36.60;;;;;;;0.07;75.09;101548.58;1757052;81;21338;-88
2020/12/09 01:40:37;;;;;;;73.70;35.65;;;;;;;0.10;75.11;101546.25;1757039;81;21142;-88
2020/12/09 01:43:04;;;;;;;72.80;36.60;;;;;;;0.09;75.13;101552.20;1756895;81;21204;-88
2020/12/09 01:45:33;;;;;;;66.72;34.38;;;;;;;0.07;75.17;101554.16;1757101;81;21155;-89
2020/12/09 01:48:00;;;;;;;57.98;30.25;;;;;;;0.06;75.20;101558.84;1757044;81;21892;-88
2020/12/09 01:50:28;;;;;;;72.30;36.25;;;;;;;0.07;75.29;101558.94;1757027;81;21605;-88
2020/12/09 01:52:56;;;;;;;68.97;34.35;;;;;;;0.08;75.37;101562.45;1757034;81;22408;-87
2020/12/09 01:55:23;;;;;;;76.07;38.20;;;;;;;0.10;75.39;101564.38;1756895;81;21138;-88
2020/12/09 01:57:51;;;;;;;64.32;33.18;;;;;;;0.11;75.37;101562.31;1757026;81;21126;-86
2020/12/09 02:00:18;;;;;;;66.85;33.02;;;;;;;0.12;75.34;101566.69;1756995;81;21969;-88
2020/12/09 02:02:45;;;;;;;70.20;35.43;;;;;;;0.12;75.43;101564.50;1756940;81;21116;-88
2020/12/09 02:05:13;;;;;;;68.57;35.03;;;;;;;0.15;75.49;101557.88;1757128;81;21131;-88
2020/12/09 02:07:41;;;;;;;72.00;36.28;;;;;;;0.18;75.50;101555.92;1757100;81;21128;-89
2020/12/09 02:10:09;;;;;;;66.72;33.15;;;;;;;0.21;75.49;101553.95;1757823;80;21118;-89
2020/12/09 02:12:40;;;;;;;71.07;34.85;;;;;;;0.20;75.50;101546.58;1774219;80;21836;-89
2020/12/09 02:15:08;;;;;;;67.37;33.75;;;;;;;0.23;75.55;101546.84;1774139;80;21142;-89
2020/12/09 02:17:36;;;;;;;66.80;33.95;;;;;;;0.24;75.59;101553.80;1774101;80;21576;-88
2020/12/09 02:20:09;;;;;;;68.90;34.95;;;;;;;0.30;75.70;101545.25;1774052;80;21661;-87
2020/12/09 02:22:37;;;;;;;;;;;;;;;0.32;75.63;101557.00;1776738;80;21114;-88
2020/12/09 02:25:05;;;;;;;67.53;33.33;;;;;;;0.37;75.66;101550.50;1774097;80;21964;-88
2020/12/09 02:27:33;;;;;;;70.45;34.50;;;;;;;0.37;75.55;101556.58;1773971;80;21150;-88
2020/12/09 02:30:00;;;;;;;63.10;32.53;;;;;;;0.40;75.61;101554.64;1773942;80;21216;-88
2020/12/09 02:32:27;;;;;;;67.62;34.92;;;;;;;0.38;75.61;101558.40;1774019;80;21134;-86
2020/12/09 02:34:54;;;;;;;65.75;32.85;;;;;;;0.38;75.56;101554.52;1774046;80;21178;-87
2020/12/09 02:37:22;;;;;;;64.42;32.93;;;;;;;0.40;75.59;101553.75;1774124;80;21902;-88
2020/12/09 02:39:49;;;;;;;58.92;29.18;;;;;;;0.38;75.61;101553.22;1773982;80;21600;-89
2020/12/09 02:42:16;;;;;;;62.73;32.40;;;;;;;0.41;75.63;101556.43;1774100;80;21636;-87
2020/12/09 02:44:43;;;;;;;63.83;30.45;;;;;;;0.42;75.70;101546.59;1773959;80;21134;-87
2020/12/09 02:47:10;;;;;;;60.80;31.70;;;;;;;0.45;75.69;101547.22;1774086;80;21119;-88
2020/12/09 02:49:37;;;;;;;63.58;32.48;;;;;;;0.44;75.67;101542.84;1774089;80;21245;-87
2020/12/09 02:52:05;;;;;;;60.23;30.35;;;;;;;0.44;75.70;101548.91;1774062;80;21192;-87
2020/12/09 02:54:31;;;;;;;69.20;34.27;;;;;;;0.47;75.72;101554.71;1773937;80;21146;-87
2020/12/09 02:56:59;;;;;;;60.85;33.45;;;;;;;0.48;75.74;101551.36;1773877;80;21185;-87
2020/12/09 02:59:26;;;;;;;64.95;33.85;;;;;;;0.52;75.82;101549.51;1774034;80;21153;-87
2020/12/09 03:01:53;;;;;;;68.83;32.93;;;;;;;0.55;75.77;101546.77;1774025;80;22105;-87
2020/12/09 03:04:20;;;;;;;61.77;31.85;;;;;;;0.56;75.73;101551.19;1774283;80;21157;-87
2020/12/09 03:06:47;;;;;;;68.57;34.05;;;;;;;0.53;75.64;101543.56;1774261;80;21155;-85
2020/12/09 03:09:14;;;;;;;67.65;35.33;;;;;;;0.54;75.69;101545.34;1774432;80;21142;-85
2020/12/09 03:11:41;;;;;;;72.92;34.78;;;;;;;0.53;75.65;101539.27;1765147;80;21195;-86
2020/12/09 03:14:09;;;;;;;67.27;35.50;;;;;;;0.52;75.68;101537.85;1757417;81;22854;-87
2020/12/09 03:16:36;;;;;;;68.00;34.48;;;;;;;0.51;75.65;101532.17;1756967;81;21523;-86
2020/12/09 03:19:03;;;;;;;77.42;36.03;;;;;;;0.47;75.64;101533.99;1757126;81;21205;-87
2020/12/09 03:21:33;;;;;;;71.67;37.45;;;;;;;0.43;75.66;101535.84;1756835;81;21254;-86
2020/12/09 03:24:00;;;;;;;71.67;35.15;;;;;;;0.42;75.80;101532.35;1756748;81;21565;-86
2020/12/09 03:26:27;;;;;;;67.70;33.92;;;;;;;0.43;75.89;101531.95;1756876;81;21897;-86
2020/12/09 03:28:54;;;;;;;72.27;37.30;;;;;;;0.43;75.89;101537.13;1756699;81;21179;-86
2020/12/09 03:31:22;;;;;;;69.25;34.15;;;;;;;0.42;76.06;101540.52;1756802;81;21168;-86
2020/12/09 03:33:49;;;;;;;72.08;34.23;;;;;;;0.42;76.15;101545.70;1756880;81;21585;-87
2020/12/09 03:36:16;;;;;;;77.40;37.48;;;;;;;0.42;76.30;101549.19;1756992;81;22330;-87
2020/12/09 03:38:43;;;;;;;83.10;37.33;;;;;;;0.41;76.38;101546.07;1756866;80;21894;-86
2020/12/09 03:41:10;;;;;;;81.32;34.33;;;;;;;0.40;76.47;101554.64;1756927;81;21079;-88
2020/12/09 03:43:37;;;;;;;73.57;36.63;;;;;;;0.38;76.54;101549.34;1756934;81;21151;-87
2020/12/09 03:46:04;;;;;;;64.85;33.78;;;;;;;0.36;76.62;101548.72;1756840;81;21182;-87
2020/12/09 03:48:31;;;;;;;81.17;37.48;;;;;;;0.38;76.80;101549.34;1756972;81;21147;-87
2020/12/09 03:50:59;;;;;;;71.62;36.05;;;;;;;0.40;76.76;101553.34;1756898;81;21893;-81
2020/12/09 03:53:27;;;;;;;68.55;34.80;;;;;;;0.38;76.71;101551.92;1756525;81;21147;-80
2020/12/09 03:55:54;;;;;;;66.95;33.88;;;;;;;0.38;76.72;101548.05;1756548;81;21183;-80
2020/12/09 03:58:21;;;;;;;65.10;33.08;;;;;;;0.37;76.66;101543.62;1756627;81;21332;-80
2020/12/09 04:00:48;;;;;;;63.55;34.58;;;;;;;0.36;76.60;101545.72;1756711;81;21151;-88
2020/12/09 04:03:15;;;;;;;74.05;36.05;;;;;;;0.36;76.64;101542.23;1757043;81;21884;-88
2020/12/09 04:05:42;;;;;;;63.85;34.92;;;;;;;0.36;76.64;101552.60;1757014;81;21127;-87
2020/12/09 04:08:09;;;;;;;72.85;35.65;;;;;;;0.32;76.67;101551.45;1757065;80;21179;-87
2020/12/09 04:10:36;;;;;;;66.77;36.20;;;;;;;0.28;76.69;101554.95;1756990;80;21167;-88
2020/12/09 04:13:04;;;;;;;74.90;36.20;;;;;;;0.23;76.81;101558.89;1770234;80;21189;-88
2020/12/09 04:15:32;;;;;;;67.37;33.53;;;;;;;0.23;77.00;101555.01;1770806;80;23046;-88
2020/12/09 04:17:59;;;;;;;76.40;36.35;;;;;;;0.23;77.11;101551.13;1770588;81;21593;-87
2020/12/09 04:20:26;;;;;;;73.87;38.25;;;;;;;0.22;77.19;101554.48;1770749;80;21138;-89
2020/12/09 04:22:53;;;;;;;77.50;37.20;;;;;;;0.21;77.14;101562.65;1770586;81;21583;-86
2020/12/09 04:25:21;;;;;;;71.62;35.48;;;;;;;0.16;77.21;101563.55;1770838;81;21150;-87
2020/12/09 04:27:48;;;;;;;80.65;37.78;;;;;;;0.14;77.19;101556.06;1770628;80;21951;-87
2020/12/09 04:30:15;;;;;;;67.47;34.95;;;;;;;0.12;77.18;101558.03;1770721;81;21233;-88
2020/12/09 04:32:42;;;;;;;71.37;36.25;;;;;;;0.12;77.33;101560.22;1770792;81;21588;-87
2020/12/09 04:35:09;;;;;;;69.55;34.70;;;;;;;0.15;77.30;101555.66;1770822;81;21157;-88
2020/12/09 04:37:36;;;;;;;67.25;35.55;;;;;;;0.11;77.25;101548.08;1770905;80;21134;-88
2020/12/09 04:40:03;;;;;;;66.05;34.33;;;;;;;0.13;77.28;101550.39;1770772;81;21898;-85
2020/12/09 04:42:30;;;;;;;67.58;34.92;;;;;;;0.13;77.18;101551.69;1770852;80;21213;-85
2020/12/09 04:44:57;;;;;;;65.42;34.35;;;;;;;0.18;77.22;101550.34;1770709;80;21617;-86
2020/12/09 04:47:30;;;;;;;58.65;32.28;;;;;;;0.19;77.12;101544.39;1770791;80;21627;-86
2020/12/09 04:50:06;;;;;;;69.15;34.67;;;;;;;0.18;76.99;101547.75;1739575;81;21122;-86
2020/12/09 04:52:48;;;;;;;62.23;33.92;;;;;;;0.18;76.96;101545.16;1770903;80;21896;-87
2020/12/09 04:55:16;;;;;;;65.05;34.55;;;;;;;0.18;76.79;101544.27;1770770;81;21126;-87
2020/12/09 04:58:12;;;;;;;66.17;33.85;;;;;;;0.17;76.78;101551.54;1770860;81;21146;-87
2020/12/09 05:00:44;;;;;;;64.55;32.70;;;;;;;0.16;76.73;101553.60;1769865;81;21193;-87
2020/12/09 05:03:20;;;;;;;66.17;34.40;;;;;;;0.19;76.78;101557.34;1770817;80;21211;-86
2020/12/09 05:05:48;;;;;;;57.93;33.53;;;;;;;0.22;76.66;101554.08;1770844;81;21177;-86
2020/12/09 05:08:21;;;;;;;59.83;32.10;;;;;;;0.21;76.57;101560.42;1770702;80;21510;-87
2020/12/09 05:10:52;;;;;;;;;;;;;;;0.22;76.54;101566.13;1773342;81;21150;-86
2020/12/09 05:13:26;;;;;;;56.50;28.85;;;;;;;0.22;76.51;101559.26;1773794;80;21541;-85
2020/12/09 05:15:57;;;;;;;61.40;33.58;;;;;;;0.22;76.45;101564.44;1774181;80;21162;-86
2020/12/09 05:18:41;;;;;;;55.28;30.88;;;;;;;0.22;76.39;101563.54;1773968;80;22809;-83
2020/12/09 05:21:23;;;;;;;57.60;29.87;;;;;;;0.22;76.42;101556.67;1773976;80;21178;-86
2020/12/09 05:23:59;;;;;;;55.08;32.78;;;;;;;0.24;76.39;101552.91;1773951;80;21193;-86
2020/12/09 05:26:32;;;;;;;61.15;32.25;;;;;;;0.24;76.30;101560.68;1773992;80;21141;-86
2020/12/09 05:29:16;;;;;;;60.58;33.38;;;;;;;0.21;76.24;101565.23;1773990;80;21134;-84
2020/12/09 05:31:53;;;;;;;63.33;33.40;;;;;;;0.22;76.31;101562.25;1773703;80;21935;-83
2020/12/09 05:34:31;;;;;;;52.03;29.57;;;;;;;0.22;76.17;101564.44;1772580;79;21649;-85
2020/12/09 05:37:05;;;;;;;59.05;34.00;;;;;;;0.22;76.21;101566.13;1780554;80;21183;-82
2020/12/09 05:39:33;;;;;;;60.08;31.68;;;;;;;0.19;76.17;101559.93;1786717;80;21152;-83
2020/12/09 05:42:08;;;;;;;58.40;32.50;;;;;;;0.22;76.25;101567.02;1786735;80;21155;-87
2020/12/09 05:44:46;;;;;;;53.75;30.02;;;;;;;0.27;76.21;101560.53;1888948;76;22853;-84
2020/12/09 05:47:13;;;;;;;55.25;31.90;;;;;;;0.22;76.16;101567.42;1857662;77;21112;-87
2020/12/09 05:49:41;;;;;;;61.05;34.30;;;;;;;0.21;76.17;101572.08;1857199;77;21764;-82
2020/12/09 05:52:20;;;;;;;63.73;33.45;;;;;;;0.17;76.15;101564.08;1857432;76;21162;-88
2020/12/09 05:54:52;;;;;;;54.67;31.30;;;;;;;0.22;76.29;101572.60;1857207;76;21174;-83
2020/12/09 05:57:25;;;;;;;60.38;33.83;;;;;;;0.26;76.26;101572.06;1857271;76;21114;-84
2020/12/09 05:59:52;;;;;;;55.45;33.35;;;;;;;0.26;76.22;101574.25;1857424;77;21130;-85
2020/12/09 06:02:22;;;;;;;57.80;31.93;;;;;;;0.27;76.20;101573.88;1857103;77;21872;-82
2020/12/09 06:04:56;;;;;;;58.92;32.15;;;;;;;0.25;76.17;101570.27;1857096;77;21107;-82
2020/12/09 06:07:26;;;;;;;55.05;31.57;;;;;;;0.27;76.18;101577.77;1857282;77;21617;-82
2020/12/09 06:10:20;;;;;;;53.75;31.55;;;;;;;0.25;76.14;101569.87;1856935;77;21174;-81
2020/12/09 06:13:00;;;;;;;56.63;31.70;;;;;;;0.21;76.04;101575.95;1856691;77;21126;-82
2020/12/09 06:15:31;;;;;;;58.08;30.60;;;;;;;0.18;76.14;101580.11;1857429;77;22418;-81
2020/12/09 06:18:11;;;;;;;55.85;32.50;;;;;;;0.18;76.16;101585.69;1857366;77;21181;-81
2020/12/09 06:20:40;;;;;;;61.33;33.83;;;;;;;0.14;76.19;101583.25;1856973;77;21167;-81
2020/12/09 06:23:18;;;;;;;58.45;32.60;;;;;;;0.10;76.27;101572.53;1857008;77;21684;-82
2020/12/09 06:25:46;;;;;;;57.85;32.65;;;;;;;0.15;76.28;101582.84;1857143;77;21182;-81
2020/12/09 06:28:17;;;;;;;53.25;30.80;;;;;;;0.16;76.36;101580.78;1857218;77;22780;-83
2020/12/09 06:30:44;;;;;;;56.73;31.73;;;;;;;0.16;76.30;101583.38;1856918;77;21146;-80
2020/12/09 06:33:12;;;;;;;59.50;33.63;;;;;;;0.16;76.37;101582.97;1857062;77;21044;-81
2020/12/09 06:35:40;;;;;;;55.40;29.77;;;;;;;0.18;76.39;101589.17;1856963;77;21209;-80
2020/12/09 06:38:13;;;;;;;63.20;32.90;;;;;;;0.19;76.36;101589.70;1857011;77;21510;-81
2020/12/09 06:41:01;;;;;;;54.13;31.35;;;;;;;0.21;76.39;101597.97;1856917;76;21949;-82
2020/12/09 06:43:28;;;;;;;59.98;32.90;;;;;;;0.21;76.34;101597.60;1856115;77;21154;-83
2020/12/09 06:45:56;;;;;;;59.77;33.73;;;;;;;0.18;76.30;101599.53;1857090;77;21186;-83
2020/12/09 06:48:24;;;;;;;62.30;34.25;;;;;;;0.16;76.38;101602.39;1856932;77;21525;-81
2020/12/09 06:50:51;;;;;;;53.17;30.95;;;;;;;0.15;76.31;101613.55;1856885;76;21545;-80
2020/12/09 06:53:20;;;;;;;62.58;32.25;;;;;;;0.14;76.40;101613.42;1856991;77;21864;-81
2020/12/09 06:55:51;;;;;;;61.83;32.20;;;;;;;0.13;76.44;101616.41;1856448;76;21115;-81
2020/12/09 06:58:29;;;;;;;66.50;34.20;;;;;;;0.12;76.51;101611.99;1856519;77;21095;-81
2020/12/09 07:01:04;;;;;;;55.63;30.65;;;;;;;0.14;76.45;101611.72;1856403;77;21174;-81
2020/12/09 07:03:36;;;;;;;58.00;32.38;;;;;;;0.13;76.44;101612.89;1856370;77;21569;-81
2020/12/09 07:06:03;;;;;;;58.42;31.87;;;;;;;0.10;76.42;101615.25;1856012;77;22852;-81
2020/12/09 07:08:30;;;;;;;66.57;33.48;;;;;;;0.07;76.41;101619.77;1820774;77;21178;-81
2020/12/09 07:10:58;;;;;;;59.00;32.75;;;;;;;0.05;76.49;101623.92;1856412;76;21194;-81
2020/12/09 07:13:26;;;;;;;60.00;33.53;;;;;;;0.05;76.54;101626.51;1856329;77;21761;-81
2020/12/09 07:15:53;;;;;;;72.85;34.53;;;;;;;0.05;76.56;101626.51;1797748;77;21051;-80
2020/12/09 07:18:20;;;;;;;67.37;37.05;;;;;;;0.05;76.54;101626.51;1856259;77;21943;-81
2020/12/09 07:20:48;;;;;;;61.58;32.80;;;;;;;0.09;76.66;101625.97;1856263;77;21158;-81
2020/12/09 07:23:15;;;;;;;55.67;31.82;;;;;;;0.10;76.53;101629.09;1857675;75;21166;-82
2020/12/09 07:25:42;;;;;;;56.37;32.93;;;;;;;0.07;76.45;101632.71;1851804;76;21192;-84
2020/12/09 07:28:09;;;;;;;59.67;34.08;;;;;;;0.05;76.44;101630.39;1853759;76;21139;-86
2020/12/09 07:30:37;;;;;;;60.75;33.08;;;;;;;0.09;76.48;101634.13;1854459;76;21871;-84
2020/12/09 07:33:04;;;;;;;60.70;32.90;;;;;;;0.12;76.46;101638.28;1842891;75;21210;-83
2020/12/09 07:35:33;;;;;;;50.43;30.27;;;;;;;0.13;76.46;101626.77;1847905;77;21659;-86
2020/12/09 07:38:00;;;;;;;60.67;32.50;;;;;;;0.15;76.34;101632.03;1825135;77;21170;-83
2020/12/09 07:40:33;;;;;;;55.28;31.00;;;;;;;0.14;76.26;101638.91;1856015;77;21229;-83
2020/12/09 07:43:06;;;;;;;54.60;29.90;;;;;;;0.14;76.23;101628.55;1856116;77;22793;-83
2020/12/09 07:45:35;;;;;;;51.00;29.15;;;;;;;0.16;76.17;101640.33;1855982;77;21166;-83
2020/12/09 07:48:08;;;;;;;60.43;33.25;;;;;;;0.16;76.13;101640.33;1825157;76;21209;-83
2020/12/09 07:50:37;;;;;;;57.58;31.75;;;;;;;0.17;76.02;101640.46;1851015;77;21896;-85
2020/12/09 07:53:11;;;;;;;54.95;31.68;;;;;;;0.16;75.98;101628.68;1847388;77;21183;-83
2020/12/09 07:55:38;;;;;;;53.17;30.17;;;;;;;0.16;75.95;101636.05;1846693;77;21954;-83
2020/12/09 08:00:53;;;;;;;51.53;29.52;;;;;;;0.27;75.92;101637.33;1855977;76;22769;-83
2020/12/09 08:03:24;;;;;;;48.58;28.32;;;;;;;0.25;75.78;101642.38;1828716;77;21439;-82
2020/12/09 08:05:55;;;;;;;55.45;30.02;;;;;;;0.26;75.68;101648.05;1827256;77;21898;-82
2020/12/09 08:08:25;;;;;;;49.58;28.30;;;;;;;0.27;75.59;101641.20;1827618;77;22016;-81
2020/12/09 08:10:52;;;;;;;53.78;29.23;;;;;;;0.27;75.56;101640.80;1828806;77;21195;-82
2020/12/09 08:13:22;;;;;;;57.83;30.00;;;;;;;0.29;75.49;101638.34;1829047;77;21985;-82
2020/12/09 08:18:43;;;;;;;53.63;28.52;;;;;;;0.34;75.36;101634.05;1864982;76;23384;-82
2020/12/09 08:21:11;;;;;;;50.55;29.25;;;;;;;0.31;75.28;101638.08;1830064;77;21464;-83
2020/12/09 08:23:50;;;;;;;53.85;29.87;;;;;;;0.30;75.28;101639.77;1827920;77;21212;-82
2020/12/09 08:26:33;;;;;;;53.05;28.42;;;;;;;0.33;75.27;101640.00;1811220;77;21215;-80
2020/12/09 08:29:05;;;;;;;45.05;27.37;;;;;;;0.38;75.31;101637.79;1831278;77;21187;-81
2020/12/09 08:31:31;;;;;;;52.43;28.57;;;;;;;0.39;75.18;101643.47;1808718;77;21639;-82
2020/12/09 08:33:58;;;;;;;50.78;28.85;;;;;;;0.37;75.08;101655.39;1829307;77;21155;-82
2020/12/09 08:36:26;;;;;;;50.45;28.77;;;;;;;0.36;75.03;101657.48;1828619;77;21861;-84
2020/12/09 08:39:00;;;;;;;52.50;29.15;;;;;;;0.37;75.04;101652.41;1828074;77;21203;-82
2020/12/09 08:41:31;;;;;;;49.38;28.25;;;;;;;0.41;75.00;101656.55;1829550;77;21198;-85
2020/12/09 08:44:04;;;;;;;44.45;26.00;;;;;;;0.45;75.03;101655.64;1830615;77;21215;-83
2020/12/09 08:46:36;;;;;;;54.27;30.90;;;;;;;0.49;74.87;101658.05;1831195;77;21215;-83
2020/12/09 08:49:03;;;;;;;51.08;28.77;;;;;;;0.48;74.67;101655.86;1828004;77;22095;-83
2020/12/09 08:51:35;;;;;;;44.50;27.82;;;;;;;0.48;74.51;101649.78;1825768;77;21204;-84
2020/12/09 08:54:05;;;;;;;52.70;31.55;;;;;;;0.49;74.41;101651.20;1830985;77;21239;-83
2020/12/09 08:56:33;;;;;;;48.68;27.58;;;;;;;0.53;74.47;101651.06;1831090;77;21196;-83
2020/12/09 09:01:42;;;;;;;46.70;28.15;;;;;;;0.56;74.26;101644.44;1866721;75;22506;-84
2020/12/09 09:04:11;;;;;;;47.55;28.60;;;;;;;0.52;74.21;101643.66;1830346;77;21159;-84
2020/12/09 09:06:38;;;;;;;57.75;30.35;;;;;;;0.51;74.20;101645.76;1832717;77;21884;-81
2020/12/09 09:09:05;;;;;;;46.10;27.27;;;;;;;0.52;74.21;101642.77;1829268;77;21162;-83
2020/12/09 09:11:33;;;;;;;58.98;30.70;;;;;;;0.53;74.10;101643.30;1831240;77;21658;-84
2020/12/09 09:14:00;;;;;;;46.35;28.27;;;;;;;0.56;74.19;101648.70;1832959;77;21154;-89
2020/12/09 09:16:27;;;;;;;49.85;30.02;;;;;;;0.60;74.19;101650.73;1831288;77;21185;-85
2020/12/09 09:18:54;;;;;;;54.55;31.60;;;;;;;0.60;74.06;101650.73;1830645;77;22855;-84
2020/12/09 09:21:21;;;;;;;51.48;31.97;;;;;;;0.63;74.02;101643.63;1834031;76;21583;-88
2020/12/09 09:23:48;;;;;;;53.58;30.45;;;;;;;0.65;74.00;101645.94;1832928;77;21677;-87
2020/12/09 09:26:15;;;;;;;48.83;29.77;;;;;;;0.65;73.87;101642.05;1835236;76;21682;-87
2020/12/09 09:28:42;;;;;;;52.88;29.67;;;;;;;0.65;73.85;101640.36;1831047;77;21179;-90
2020/12/09 09:31:09;;;;;;;50.90;30.48;;;;;;;0.66;73.79;101645.17;1832083;76;21893;-84
2020/12/09 09:33:38;;;;;;;51.10;27.67;;;;;;;0.66;73.68;101645.17;1830260;77;21188;-83
2020/12/09 09:36:06;;;;;;;51.48;30.35;;;;;;;0.65;73.63;101642.95;1832363;77;21231;-83
2020/12/09 09:38:33;;;;;;;51.15;30.25;;;;;;;0.63;73.49;101646.22;1833355;77;21543;-83
2020/12/09 09:41:00;;;;;;;51.08;30.77;;;;;;;0.58;73.42;101652.31;1830758;77;21155;-83
2020/12/09 09:43:27;;;;;;;52.25;32.35;;;;;;;0.52;73.41;101655.72;1829952;77;21195;-83
2020/12/09 09:45:54;;;;;;;54.05;31.55;;;;;;;0.54;73.50;101655.05;1831273;77;21210;-83
2020/12/09 09:48:21;;;;;;;50.83;28.87;;;;;;;0.57;73.55;101659.19;1831530;77;21125;-82
2020/12/09 09:50:48;;;;;;;49.30;29.92;;;;;;;0.63;73.53;101660.47;1832063;77;21133;-83
2020/12/09 09:53:15;;;;;;;58.58;32.40;;;;;;;0.64;73.40;101655.78;1831493;77;21179;-84
2020/12/09 09:55:42;;;;;;;55.67;33.33;;;;;;;0.63;73.25;101653.59;1829082;77;21886;-84
2020/12/09 09:58:09;;;;;;;55.35;32.50;;;;;;;0.57;73.16;101650.52;1834324;77;21260;-83
2020/12/09 10:00:36;;;;;;;53.15;31.17;;;;;;;0.58;73.29;101647.13;1829439;77;21136;-84
2020/12/09 10:03:04;;;;;;;52.33;30.23;;;;;;;0.61;73.35;101646.09;1834861;76;21211;-86
2020/12/09 10:05:30;;;;;;;54.35;31.45;;;;;;;0.62;73.17;101648.28;1831718;77;21168;-85
2020/12/09 10:07:57;;;;;;;56.83;32.63;;;;;;;0.58;72.99;101641.58;1830219;77;21870;-85
2020/12/09 10:10:24;;;;;;;63.95;33.50;;;;;;;0.55;73.09;101631.36;1833089;77;21879;-84
2020/12/09 10:12:51;;;;;;;53.17;30.80;;;;;;;0.58;73.10;101631.22;1832353;77;21143;-84
2020/12/09 10:15:19;;;;;;;55.10;30.35;;;;;;;0.60;73.06;101621.34;1828353;78;21189;-87
2020/12/09 10:17:46;;;;;;;49.35;30.08;;;;;;;0.57;72.96;101624.21;1832377;77;21217;-89
2020/12/09 10:20:13;;;;;;;53.60;31.20;;;;;;;0.54;72.92;101625.25;1830140;77;21879;-86
2020/12/09 10:22:39;;;;;;;54.00;31.15;;;;;;;0.51;72.94;101622.44;1831750;77;21179;-86
2020/12/09 10:25:06;;;;;;;54.63;31.17;;;;;;;0.53;73.02;101616.09;1828603;78;21438;-86
2020/12/09 10:27:34;;;;;;;52.60;31.00;;;;;;;0.57;73.10;101616.84;1831883;76;21177;-84
2020/12/09 10:30:01;;;;;;;53.58;32.08;;;;;;;0.55;72.92;101614.13;1829398;77;21187;-87
2020/12/09 10:32:27;;;;;;;52.65;29.60;;;;;;;0.59;73.05;101611.38;1832178;77;21874;-87
2020/12/09 10:34:54;;;;;;;55.33;31.82;;;;;;;0.64;73.07;101610.07;1829913;77;21552;-87
2020/12/09 10:37:21;;;;;;;53.87;30.65;;;;;;;0.71;73.11;101614.95;1830250;77;21586;-85
2020/12/09 10:39:52;;;;;;;48.28;29.37;;;;;;;0.80;73.07;101619.93;1836194;76;21244;-85
2020/12/09 10:42:17;;;;;;;58.85;32.65;;;;;;;0.83;72.94;101617.99;1832167;77;21652;-85
2020/12/09 10:44:44;;;;;;;52.33;29.82;;;;;;;0.83;72.77;101621.48;1832832;77;21874;-86
2020/12/09 10:47:11;;;;;;;54.77;30.88;;;;;;;0.81;72.73;101616.94;1829058;77;21180;-85
2020/12/09 10:49:43;;;;;;;57.58;31.02;;;;;;;0.82;72.64;101616.17;1830645;77;21223;-86
2020/12/09 10:52:07;;;;;;;51.15;28.87;;;;;;;0.77;72.62;101610.64;1827707;78;21148;-87
2020/12/09 10:54:34;;;;;;;53.98;30.02;;;;;;;0.76;72.62;101609.72;1834953;77;21160;-87
2020/12/09 10:57:02;;;;;;;49.05;28.07;;;;;;;0.75;72.63;101611.81;1828991;78;22784;-85
2020/12/09 10:59:29;;;;;;;50.65;30.27;;;;;;;0.74;72.51;101608.70;1828880;77;21168;-86
2020/12/09 11:01:56;;;;;;;51.45;30.30;;;;;;;0.66;72.46;101611.09;1831839;77;21200;-85
2020/12/09 11:04:23;;;;;;;51.15;29.42;;;;;;;0.63;72.51;101607.35;1831258;77;21172;-86
2020/12/09 11:06:50;;;;;;;48.25;28.85;;;;;;;0.60;72.54;101617.46;1833836;77;21168;-86
2020/12/09 11:09:17;;;;;;;52.88;30.65;;;;;;;0.58;72.63;101613.08;1832777;77;21887;-85
2020/12/09 11:11:47;;;;;;;57.93;32.20;;;;;;;0.52;72.52;101613.87;1832500;77;21690;-86
2020/12/09 11:14:14;;;;;;;57.10;31.52;;;;;;;0.52;72.67;101609.09;1833630;77;21202;-86
2020/12/09 11:16:41;;;;;;;61.02;30.62;;;;;;;0.51;72.62;101605.60;1839947;77;21119;-87
2020/12/09 11:19:08;;;;;;;64.65;33.67;;;;;;;0.46;72.62;101612.50;1846745;77;21378;-88
2020/12/09 11:21:37;;;;;;;57.00;30.35;;;;;;;0.48;72.76;101611.83;1828536;78;22851;-87
2020/12/09 11:24:04;;;;;;;56.53;31.90;;;;;;;0.50;72.75;101606.37;1832954;77;21202;-86
2020/12/09 11:26:31;;;;;;;51.95;30.02;;;;;;;0.48;72.63;101606.64;1831767;77;21159;-86
2020/12/09 11:28:58;;;;;;;57.88;32.85;;;;;;;0.50;72.76;101600.30;1833452;77;21578;-85
2020/12/09 11:31:25;;;;;;;53.63;30.75;;;;;;;0.50;72.68;101603.78;1829483;76;21209;-86
2020/12/09 11:33:52;;;;;;;52.35;29.72;;;;;;;0.48;72.65;101607.94;1830564;77;21890;-86